Barao de Grajau, Brazil
Current Conditions -  °F | °C
As of 1:00 PM on Tuesday 21 Oct 2014 (Local Time) from SBTE Reporting Station
Clear Clear  
Wind Chill: 95°   Ceiling: Unl
Heat Index: 101°   Visibility: 6mi
Dew Point: 70°   Wind: 8mph
Humidity: 44%   Direction: 200°SSW
Pressure: 29.8"   Gusts: NA
Location:  6.76°S, 43.02°W
Report Text: SBTE 211600Z 20007KT CAVOK 35/21 Q1009
Loading
Personal Weather Stations






























Interactive Weather Map
Tropical Storm Tracking
New forecast layout! Learn more

10-Day Weather Forecast

Advertisements
Track Severe Weather on mobile